sensor_id;sensor_type;location;lat;lon;timestamp;pressure;altitude;pressure_sealevel;temperature;humidity
70968;BME280;58629;48.808;8.820;2022-09-09T00:00:46;96791.44;;;13.65;87.28
70968;BME280;58629;48.808;8.820;2022-09-09T00:03:17;96800.50;;;13.67;87.55
70968;BME280;58629;48.808;8.820;2022-09-09T00:06:01;96796.22;;;13.70;87.72
70968;BME280;58629;48.808;8.820;2022-09-09T00:11:48;96777.91;;;13.72;87.41
70968;BME280;58629;48.808;8.820;2022-09-09T00:14:23;96784.28;;;13.74;86.41
70968;BME280;58629;48.808;8.820;2022-09-09T00:16:56;96789.47;;;13.78;84.41
70968;BME280;58629;48.808;8.820;2022-09-09T00:19:30;96790.88;;;13.91;84.10
70968;BME280;58629;48.808;8.820;2022-09-09T00:22:17;96775.69;;;14.01;83.53
70968;BME280;58629;48.808;8.820;2022-09-09T00:24:46;96775.44;;;14.08;83.69
70968;BME280;58629;48.808;8.820;2022-09-09T00:27:34;96771.03;;;14.14;82.72
70968;BME280;58629;48.808;8.820;2022-09-09T00:30:24;96775.03;;;14.19;83.16
70968;BME280;58629;48.808;8.820;2022-09-09T00:32:55;96769.25;;;14.20;83.08
70968;BME280;58629;48.808;8.820;2022-09-09T00:35:53;96780.97;;;14.23;82.33
70968;BME280;58629;48.808;8.820;2022-09-09T00:38:24;96775.19;;;14.24;82.44
70968;BME280;58629;48.808;8.820;2022-09-09T00:43:35;96781.72;;;14.23;81.60
70968;BME280;58629;48.808;8.820;2022-09-09T00:46:21;96778.16;;;14.26;81.46
70968;BME280;58629;48.808;8.820;2022-09-09T00:49:05;96785.44;;;14.26;82.05
70968;BME280;58629;48.808;8.820;2022-09-09T00:59:50;96773.72;;;14.23;83.48
70968;BME280;58629;48.808;8.820;2022-09-09T01:02:35;96768.25;;;14.27;80.79
70968;BME280;58629;48.808;8.820;2022-09-09T01:05:13;96777.00;;;14.27;81.45
70968;BME280;58629;48.808;8.820;2022-09-09T01:07:44;96784.81;;;14.22;83.67
70968;BME280;58629;48.808;8.820;2022-09-09T01:10:24;96780.81;;;14.17;82.91
70968;BME280;58629;48.808;8.820;2022-09-09T01:12:51;96776.66;;;14.16;83.16
70968;BME280;58629;48.808;8.820;2022-09-09T01:15:25;96794.56;;;14.16;83.66
70968;BME280;58629;48.808;8.820;2022-09-09T01:18:04;96782.28;;;14.18;83.97
70968;BME280;58629;48.808;8.820;2022-09-09T01:26:09;96786.59;;;14.25;83.59
70968;BME280;58629;48.808;8.820;2022-09-09T01:28:40;96788.09;;;14.26;84.04
70968;BME280;58629;48.808;8.820;2022-09-09T01:31:09;96802.13;;;14.26;82.48
70968;BME280;58629;48.808;8.820;2022-09-09T01:33:36;96794.91;;;14.27;81.67
70968;BME280;58629;48.808;8.820;2022-09-09T01:38:28;96818.34;;;14.32;84.31
70968;BME280;58629;48.808;8.820;2022-09-09T01:40:54;96816.09;;;14.30;85.75
70968;BME280;58629;48.808;8.820;2022-09-09T01:43:21;96820.41;;;14.28;84.46
70968;BME280;58629;48.808;8.820;2022-09-09T01:45:49;96816.84;;;14.31;85.16
70968;BME280;58629;48.808;8.820;2022-09-09T01:48:16;96796.59;;;14.33;83.29
70968;BME280;58629;48.808;8.820;2022-09-09T01:50:41;96771.34;;;14.56;79.61
70968;BME280;58629;48.808;8.820;2022-09-09T01:53:07;96792.34;;;14.54;82.14
70968;BME280;58629;48.808;8.820;2022-09-09T01:55:38;96794.84;;;14.48;83.92
70968;BME280;58629;48.808;8.820;2022-09-09T01:58:35;96789.22;;;14.46;85.35
70968;BME280;58629;48.808;8.820;2022-09-09T02:01:13;96796.75;;;14.39;87.25
70968;BME280;58629;48.808;8.820;2022-09-09T02:03:44;96784.75;;;14.34;87.68
70968;BME280;58629;48.808;8.820;2022-09-09T02:06:26;96780.09;;;14.26;88.07
70968;BME280;58629;48.808;8.820;2022-09-09T02:08:55;96790.41;;;14.15;87.45
70968;BME280;58629;48.808;8.820;2022-09-09T02:11:23;96800.44;;;14.11;86.99
70968;BME280;58629;48.808;8.820;2022-09-09T02:13:53;96802.63;;;14.03;88.11
70968;BME280;58629;48.808;8.820;2022-09-09T02:16:38;96796.69;;;13.99;88.24
70968;BME280;58629;48.808;8.820;2022-09-09T02:19:09;96783.38;;;13.99;88.32
70968;BME280;58629;48.808;8.820;2022-09-09T02:21:39;96787.94;;;13.99;89.08
70968;BME280;58629;48.808;8.820;2022-09-09T02:24:08;96795.47;;;13.91;89.30
70968;BME280;58629;48.808;8.820;2022-09-09T02:26:38;96791.63;;;13.92;89.54
70968;BME280;58629;48.808;8.820;2022-09-09T02:29:08;96794.41;;;13.88;90.13
70968;BME280;58629;48.808;8.820;2022-09-09T02:31:36;96784.34;;;13.83;90.24
70968;BME280;58629;48.808;8.820;2022-09-09T02:34:04;96778.41;;;13.79;90.84
70968;BME280;58629;48.808;8.820;2022-09-09T02:36:32;96774.69;;;13.77;90.93
70968;BME280;58629;48.808;8.820;2022-09-09T02:38:59;96777.91;;;13.72;90.96
70968;BME280;58629;48.808;8.820;2022-09-09T02:41:36;96766.22;;;13.69;90.77
70968;BME280;58629;48.808;8.820;2022-09-09T02:44:08;96774.31;;;13.66;91.01
70968;BME280;58629;48.808;8.820;2022-09-09T02:49:56;96767.03;;;13.57;91.86
70968;BME280;58629;48.808;8.820;2022-09-09T02:52:34;96764.50;;;13.54;92.20
70968;BME280;58629;48.808;8.820;2022-09-09T02:55:08;96756.19;;;13.52;91.96
70968;BME280;58629;48.808;8.820;2022-09-09T02:57:37;96751.00;;;13.48;92.18
70968;BME280;58629;48.808;8.820;2022-09-09T03:00:04;96757.31;;;13.42;92.66
70968;BME280;58629;48.808;8.820;2022-09-09T03:02:30;96755.63;;;13.35;93.56
70968;BME280;58629;48.808;8.820;2022-09-09T03:04:55;96757.66;;;13.31;93.27
70968;BME280;58629;48.808;8.820;2022-09-09T03:07:21;96750.56;;;13.28;92.93
70968;BME280;58629;48.808;8.820;2022-09-09T03:09:46;96744.19;;;13.26;92.31
70968;BME280;58629;48.808;8.820;2022-09-09T03:12:12;96746.84;;;13.26;91.70
70968;BME280;58629;48.808;8.820;2022-09-09T03:14:38;96745.69;;;13.27;91.90
70968;BME280;58629;48.808;8.820;2022-09-09T03:17:05;96747.25;;;13.37;88.89
70968;BME280;58629;48.808;8.820;2022-09-09T03:19:30;96756.16;;;13.43;87.84
70968;BME280;58629;48.808;8.820;2022-09-09T03:21:56;96760.63;;;13.55;87.03
70968;BME280;58629;48.808;8.820;2022-09-09T03:24:21;96753.09;;;13.53;86.92
70968;BME280;58629;48.808;8.820;2022-09-09T03:26:48;96759.03;;;13.57;86.48
70968;BME280;58629;48.808;8.820;2022-09-09T03:29:13;96768.22;;;13.56;86.08
70968;BME280;58629;48.808;8.820;2022-09-09T03:31:39;96758.72;;;13.55;86.03
70968;BME280;58629;48.808;8.820;2022-09-09T03:34:05;96765.53;;;13.56;85.85
70968;BME280;58629;48.808;8.820;2022-09-09T03:36:31;96770.69;;;13.51;86.14
70968;BME280;58629;48.808;8.820;2022-09-09T03:38:57;96763.25;;;13.46;86.95
70968;BME280;58629;48.808;8.820;2022-09-09T03:41:23;96759.97;;;13.42;86.85
70968;BME280;58629;48.808;8.820;2022-09-09T03:43:52;96759.16;;;13.32;87.57
70968;BME280;58629;48.808;8.820;2022-09-09T03:46:19;96761.06;;;13.32;87.52
70968;BME280;58629;48.808;8.820;2022-09-09T03:48:45;96769.25;;;13.37;87.03
70968;BME280;58629;48.808;8.820;2022-09-09T03:51:10;96759.78;;;13.36;86.96
70968;BME280;58629;48.808;8.820;2022-09-09T03:53:36;96767.31;;;13.38;86.17
70968;BME280;58629;48.808;8.820;2022-09-09T03:56:02;96778.84;;;13.35;86.47
70968;BME280;58629;48.808;8.820;2022-09-09T03:58:28;96782.16;;;13.26;87.46
70968;BME280;58629;48.808;8.820;2022-09-09T04:01:02;96781.38;;;13.38;86.15
70968;BME280;58629;48.808;8.820;2022-09-09T04:03:28;96777.16;;;13.28;86.59
70968;BME280;58629;48.808;8.820;2022-09-09T04:05:55;96774.56;;;13.37;86.55
70968;BME280;58629;48.808;8.820;2022-09-09T04:08:21;96772.81;;;13.43;85.59
70968;BME280;58629;48.808;8.820;2022-09-09T04:10:48;96775.63;;;13.40;85.92
70968;BME280;58629;48.808;8.820;2022-09-09T04:13:15;96772.66;;;13.38;86.37
70968;BME280;58629;48.808;8.820;2022-09-09T04:15:42;96779.03;;;13.40;86.24
70968;BME280;58629;48.808;8.820;2022-09-09T04:18:08;96776.56;;;13.46;86.05
70968;BME280;58629;48.808;8.820;2022-09-09T04:20:34;96768.88;;;13.48;85.39
70968;BME280;58629;48.808;8.820;2022-09-09T04:23:00;96774.63;;;13.46;85.71
70968;BME280;58629;48.808;8.820;2022-09-09T04:25:25;96776.69;;;13.42;85.80
70968;BME280;58629;48.808;8.820;2022-09-09T04:27:57;96778.47;;;13.45;85.44
70968;BME280;58629;48.808;8.820;2022-09-09T04:30:24;96784.03;;;13.38;85.76
70968;BME280;58629;48.808;8.820;2022-09-09T04:32:50;96783.84;;;13.33;85.95
70968;BME280;58629;48.808;8.820;2022-09-09T04:35:15;96783.63;;;13.27;86.29
70968;BME280;58629;48.808;8.820;2022-09-09T04:37:40;96784.25;;;13.31;85.80
70968;BME280;58629;48.808;8.820;2022-09-09T04:40:06;96788.84;;;13.31;85.46
70968;BME280;58629;48.808;8.820;2022-09-09T04:42:35;96785.81;;;13.41;84.75
70968;BME280;58629;48.808;8.820;2022-09-09T04:45:01;96793.63;;;13.36;84.98
70968;BME280;58629;48.808;8.820;2022-09-09T04:47:26;96800.22;;;13.31;85.36
70968;BME280;58629;48.808;8.820;2022-09-09T04:49:52;96798.63;;;13.34;85.34
70968;BME280;58629;48.808;8.820;2022-09-09T04:52:19;96800.75;;;13.39;85.34
70968;BME280;58629;48.808;8.820;2022-09-09T04:54:45;96802.22;;;13.40;84.75
70968;BME280;58629;48.808;8.820;2022-09-09T04:57:10;96802.16;;;13.31;84.86
70968;BME280;58629;48.808;8.820;2022-09-09T04:59:36;96806.53;;;13.25;85.26
70968;BME280;58629;48.808;8.820;2022-09-09T05:02:02;96801.53;;;13.27;86.02
70968;BME280;58629;48.808;8.820;2022-09-09T05:04:28;96808.50;;;13.33;85.10
70968;BME280;58629;48.808;8.820;2022-09-09T05:06:53;96812.16;;;13.27;84.77
70968;BME280;58629;48.808;8.820;2022-09-09T05:09:19;96813.31;;;13.26;85.18
70968;BME280;58629;48.808;8.820;2022-09-09T05:11:44;96820.56;;;13.25;85.19
70968;BME280;58629;48.808;8.820;2022-09-09T05:14:09;96809.91;;;13.25;84.29
70968;BME280;58629;48.808;8.820;2022-09-09T05:16:37;96814.06;;;13.26;84.78
70968;BME280;58629;48.808;8.820;2022-09-09T05:19:02;96817.03;;;13.28;85.04
70968;BME280;58629;48.808;8.820;2022-09-09T05:21:28;96827.69;;;13.28;84.44
70968;BME280;58629;48.808;8.820;2022-09-09T05:23:55;96823.13;;;13.29;84.92
70968;BME280;58629;48.808;8.820;2022-09-09T05:26:22;96825.97;;;13.34;84.79
70968;BME280;58629;48.808;8.820;2022-09-09T05:28:48;96825.09;;;13.37;84.89
70968;BME280;58629;48.808;8.820;2022-09-09T05:31:15;96828.06;;;13.39;85.38
70968;BME280;58629;48.808;8.820;2022-09-09T05:33:42;96836.78;;;13.40;85.22
70968;BME280;58629;48.808;8.820;2022-09-09T05:36:14;96834.88;;;13.40;85.84
70968;BME280;58629;48.808;8.820;2022-09-09T05:38:40;96834.13;;;13.40;85.27
70968;BME280;58629;48.808;8.820;2022-09-09T05:41:05;96827.53;;;13.44;85.77
70968;BME280;58629;48.808;8.820;2022-09-09T05:43:31;96823.69;;;13.45;85.64
70968;BME280;58629;48.808;8.820;2022-09-09T05:46:09;96820.78;;;13.52;85.49
70968;BME280;58629;48.808;8.820;2022-09-09T05:48:36;96826.75;;;13.56;85.09
70968;BME280;58629;48.808;8.820;2022-09-09T05:51:03;96827.59;;;13.53;85.36
70968;BME280;58629;48.808;8.820;2022-09-09T05:53:30;96825.69;;;13.54;85.91
70968;BME280;58629;48.808;8.820;2022-09-09T05:56:07;96816.50;;;13.55;85.59
70968;BME280;58629;48.808;8.820;2022-09-09T05:58:34;96831.31;;;13.56;85.27
70968;BME280;58629;48.808;8.820;2022-09-09T06:01:28;96822.69;;;13.52;84.87
70968;BME280;58629;48.808;8.820;2022-09-09T06:03:54;96835.06;;;13.46;84.34
70968;BME280;58629;48.808;8.820;2022-09-09T06:06:21;96834.53;;;13.51;84.39
70968;BME280;58629;48.808;8.820;2022-09-09T06:08:50;96827.16;;;13.55;84.46
70968;BME280;58629;48.808;8.820;2022-09-09T06:11:21;96826.56;;;13.51;84.54
70968;BME280;58629;48.808;8.820;2022-09-09T06:13:47;96827.72;;;13.50;85.13
70968;BME280;58629;48.808;8.820;2022-09-09T06:16:15;96826.97;;;13.49;85.31
70968;BME280;58629;48.808;8.820;2022-09-09T06:18:41;96829.22;;;13.51;86.10
70968;BME280;58629;48.808;8.820;2022-09-09T06:21:11;96831.56;;;13.49;85.86
70968;BME280;58629;48.808;8.820;2022-09-09T06:23:39;96829.72;;;13.58;85.24
70968;BME280;58629;48.808;8.820;2022-09-09T06:26:25;96830.25;;;13.75;84.46
70968;BME280;58629;48.808;8.820;2022-09-09T06:28:52;96835.38;;;13.91;83.04
70968;BME280;58629;48.808;8.820;2022-09-09T06:31:20;96835.06;;;14.11;82.37
70968;BME280;58629;48.808;8.820;2022-09-09T06:33:50;96838.47;;;14.33;81.64
70968;BME280;58629;48.808;8.820;2022-09-09T06:36:21;96831.00;;;14.49;81.51
70968;BME280;58629;48.808;8.820;2022-09-09T06:38:46;96837.69;;;14.63;79.98
70968;BME280;58629;48.808;8.820;2022-09-09T06:41:13;96838.00;;;14.65;80.14
70968;BME280;58629;48.808;8.820;2022-09-09T06:43:39;96840.13;;;14.79;79.86
70968;BME280;58629;48.808;8.820;2022-09-09T06:46:08;96828.47;;;14.95;79.42
70968;BME280;58629;48.808;8.820;2022-09-09T06:48:34;96841.78;;;14.95;78.88
70968;BME280;58629;48.808;8.820;2022-09-09T06:51:06;96837.34;;;15.01;79.03
70968;BME280;58629;48.808;8.820;2022-09-09T06:53:33;96838.09;;;15.01;78.82
70968;BME280;58629;48.808;8.820;2022-09-09T06:56:17;96841.50;;;15.02;79.49
70968;BME280;58629;48.808;8.820;2022-09-09T06:58:43;96839.47;;;15.15;79.33
70968;BME280;58629;48.808;8.820;2022-09-09T07:01:14;96840.22;;;15.33;78.16
70968;BME280;58629;48.808;8.820;2022-09-09T07:03:41;96844.94;;;15.20;77.27
70968;BME280;58629;48.808;8.820;2022-09-09T07:06:09;96844.97;;;15.38;77.05
70968;BME280;58629;48.808;8.820;2022-09-09T07:08:39;96845.59;;;15.60;76.06
70968;BME280;58629;48.808;8.820;2022-09-09T07:11:06;96844.53;;;15.76;77.20
70968;BME280;58629;48.808;8.820;2022-09-09T07:13:32;96839.75;;;16.07;76.27
70968;BME280;58629;48.808;8.820;2022-09-09T07:16:11;96848.22;;;16.06;76.84
70968;BME280;58629;48.808;8.820;2022-09-09T07:18:38;96850.56;;;16.13;76.37
70968;BME280;58629;48.808;8.820;2022-09-09T07:21:03;96860.06;;;16.14;75.03
70968;BME280;58629;48.808;8.820;2022-09-09T07:23:30;96847.13;;;16.21;75.37
70968;BME280;58629;48.808;8.820;2022-09-09T07:25:56;96848.44;;;16.35;74.67
70968;BME280;58629;48.808;8.820;2022-09-09T07:28:23;96848.53;;;16.59;74.58
70968;BME280;58629;48.808;8.820;2022-09-09T07:31:00;96838.66;;;16.74;73.37
70968;BME280;58629;48.808;8.820;2022-09-09T07:33:29;96836.22;;;16.85;73.26
70968;BME280;58629;48.808;8.820;2022-09-09T07:36:02;96839.56;;;17.03;73.03
70968;BME280;58629;48.808;8.820;2022-09-09T07:38:28;96847.50;;;17.36;71.24
70968;BME280;58629;48.808;8.820;2022-09-09T07:41:02;96851.03;;;17.42;69.96
70968;BME280;58629;48.808;8.820;2022-09-09T07:43:28;96847.56;;;17.27;70.55
70968;BME280;58629;48.808;8.820;2022-09-09T07:46:00;96847.41;;;17.07;71.21
70968;BME280;58629;48.808;8.820;2022-09-09T07:48:28;96841.88;;;17.10;73.78
70968;BME280;58629;48.808;8.820;2022-09-09T07:51:03;96847.31;;;17.40;73.48
70968;BME280;58629;48.808;8.820;2022-09-09T07:53:29;96855.63;;;17.65;69.78
70968;BME280;58629;48.808;8.820;2022-09-09T07:56:02;96843.19;;;17.91;68.71
70968;BME280;58629;48.808;8.820;2022-09-09T07:58:28;96836.28;;;18.14;69.28
70968;BME280;58629;48.808;8.820;2022-09-09T08:00:53;96839.97;;;18.16;66.46
70968;BME280;58629;48.808;8.820;2022-09-09T08:03:18;96843.13;;;18.44;68.04
70968;BME280;58629;48.808;8.820;2022-09-09T08:05:45;96854.09;;;18.61;68.07
70968;BME280;58629;48.808;8.820;2022-09-09T08:08:10;96851.50;;;18.66;66.83
70968;BME280;58629;48.808;8.820;2022-09-09T08:10:35;96869.03;;;18.82;68.30
70968;BME280;58629;48.808;8.820;2022-09-09T08:13:01;96864.69;;;19.19;67.15
70968;BME280;58629;48.808;8.820;2022-09-09T08:15:26;96852.72;;;19.20;64.59
70968;BME280;58629;48.808;8.820;2022-09-09T08:17:52;96852.34;;;19.47;62.46
70968;BME280;58629;48.808;8.820;2022-09-09T08:20:17;96860.72;;;19.15;63.90
70968;BME280;58629;48.808;8.820;2022-09-09T08:22:43;96847.66;;;19.08;66.05
70968;BME280;58629;48.808;8.820;2022-09-09T08:25:08;96837.69;;;19.08;67.59
70968;BME280;58629;48.808;8.820;2022-09-09T08:27:35;96843.63;;;18.77;67.51
70968;BME280;58629;48.808;8.820;2022-09-09T08:30:00;96850.13;;;18.56;67.30
70968;BME280;58629;48.808;8.820;2022-09-09T08:32:25;96859.59;;;18.52;67.05
70968;BME280;58629;48.808;8.820;2022-09-09T08:34:51;96853.66;;;18.97;66.30
70968;BME280;58629;48.808;8.820;2022-09-09T08:37:16;96854.25;;;19.07;64.85
70968;BME280;58629;48.808;8.820;2022-09-09T08:39:42;96863.19;;;19.18;64.84
70968;BME280;58629;48.808;8.820;2022-09-09T08:42:40;96864.00;;;19.24;58.96
70968;BME280;58629;48.808;8.820;2022-09-09T08:50:35;96854.34;;;19.32;60.42
70968;BME280;58629;48.808;8.820;2022-09-09T08:53:11;96860.66;;;19.49;59.29
70968;BME280;58629;48.808;8.820;2022-09-09T09:03:23;96877.19;;;18.73;63.90
70968;BME280;58629;48.808;8.820;2022-09-09T09:09:14;96871.81;;;18.87;61.63
70968;BME280;58629;48.808;8.820;2022-09-09T09:11:51;96863.91;;;18.64;63.19
70968;BME280;58629;48.808;8.820;2022-09-09T09:14:23;96866.88;;;18.51;63.73
70968;BME280;58629;48.808;8.820;2022-09-09T09:17:06;96860.38;;;18.72;63.20
70968;BME280;58629;48.808;8.820;2022-09-09T09:19:34;96857.44;;;18.56;63.10
70968;BME280;58629;48.808;8.820;2022-09-09T09:25:12;96856.22;;;19.26;61.86
70968;BME280;58629;48.808;8.820;2022-09-09T09:31:21;96843.63;;;19.52;59.89
70968;BME280;58629;48.808;8.820;2022-09-09T09:33:35;96840.25;;;19.37;60.16
70968;BME280;58629;48.808;8.820;2022-09-09T09:36:05;96849.88;;;19.89;58.31
70968;BME280;58629;48.808;8.820;2022-09-09T09:38:33;96846.16;;;19.87;56.93
70968;BME280;58629;48.808;8.820;2022-09-09T09:40:59;96841.38;;;19.71;55.89
70968;BME280;58629;48.808;8.820;2022-09-09T09:43:28;96836.63;;;20.12;55.33
70968;BME280;58629;48.808;8.820;2022-09-09T09:45:54;96829.59;;;19.63;55.04
70968;BME280;58629;48.808;8.820;2022-09-09T09:48:20;96833.13;;;19.74;54.90
70968;BME280;58629;48.808;8.820;2022-09-09T09:50:57;96823.16;;;20.06;54.47
70968;BME280;58629;48.808;8.820;2022-09-09T09:53:28;96827.69;;;20.51;55.43
70968;BME280;58629;48.808;8.820;2022-09-09T09:55:59;96822.03;;;20.86;54.33
70968;BME280;58629;48.808;8.820;2022-09-09T10:01:21;96825.69;;;20.83;52.87
70968;BME280;58629;48.808;8.820;2022-09-09T10:03:51;96822.13;;;20.60;52.71
70968;BME280;58629;48.808;8.820;2022-09-09T10:06:17;96820.56;;;19.92;50.47
70968;BME280;58629;48.808;8.820;2022-09-09T10:08:46;96817.53;;;19.33;51.47
70968;BME280;58629;48.808;8.820;2022-09-09T10:19:29;96832.03;;;19.41;50.80
70968;BME280;58629;48.808;8.820;2022-09-09T10:24:48;96828.72;;;19.77;51.57
70968;BME280;58629;48.808;8.820;2022-09-09T10:27:23;96828.06;;;20.39;50.29
70968;BME280;58629;48.808;8.820;2022-09-09T10:35:37;96837.13;;;21.09;50.42
70968;BME280;58629;48.808;8.820;2022-09-09T10:40:47;96845.22;;;19.64;56.93
70968;BME280;58629;48.808;8.820;2022-09-09T10:43:56;96859.97;;;19.14;58.81
70968;BME280;58629;48.808;8.820;2022-09-09T10:51:49;96884.97;;;18.12;63.95
70968;BME280;58629;48.808;8.820;2022-09-09T10:57:24;96895.66;;;17.12;68.97
70968;BME280;58629;48.808;8.820;2022-09-09T10:59:53;96903.03;;;16.94;69.04
70968;BME280;58629;48.808;8.820;2022-09-09T11:02:29;96911.28;;;16.81;70.49
70968;BME280;58629;48.808;8.820;2022-09-09T11:05:05;96912.25;;;16.51;71.65
70968;BME280;58629;48.808;8.820;2022-09-09T11:07:50;96923.38;;;16.40;74.21
70968;BME280;58629;48.808;8.820;2022-09-09T11:10:26;96928.31;;;16.24;74.62
70968;BME280;58629;48.808;8.820;2022-09-09T11:12:59;96926.09;;;16.13;78.08
70968;BME280;58629;48.808;8.820;2022-09-09T11:15:40;96925.22;;;16.07;77.52
70968;BME280;58629;48.808;8.820;2022-09-09T11:18:11;96921.22;;;16.12;78.67
70968;BME280;58629;48.808;8.820;2022-09-09T11:20:38;96923.75;;;16.06;78.37
70968;BME280;58629;48.808;8.820;2022-09-09T11:23:17;96929.22;;;16.21;79.32
70968;BME280;58629;48.808;8.820;2022-09-09T11:25:48;96921.19;;;16.30;78.14
70968;BME280;58629;48.808;8.820;2022-09-09T11:34:03;96893.91;;;17.33;75.61
70968;BME280;58629;48.808;8.820;2022-09-09T11:44:39;96866.34;;;19.17;64.50
70968;BME280;58629;48.808;8.820;2022-09-09T11:47:20;96860.03;;;19.20;62.74
70968;BME280;58629;48.808;8.820;2022-09-09T11:49:48;96855.16;;;19.38;64.58
70968;BME280;58629;48.808;8.820;2022-09-09T11:52:24;96858.69;;;19.10;64.30
70968;BME280;58629;48.808;8.820;2022-09-09T11:54:50;96847.88;;;19.39;63.09
70968;BME280;58629;48.808;8.820;2022-09-09T11:57:35;96850.47;;;19.79;60.61
70968;BME280;58629;48.808;8.820;2022-09-09T12:00:02;96842.22;;;20.34;59.97
70968;BME280;58629;48.808;8.820;2022-09-09T12:02:28;96834.94;;;20.40;58.58
70968;BME280;58629;48.808;8.820;2022-09-09T12:05:06;96828.38;;;20.83;56.17
70968;BME280;58629;48.808;8.820;2022-09-09T12:07:48;96823.94;;;20.80;54.24
70968;BME280;58629;48.808;8.820;2022-09-09T12:10:34;96821.78;;;21.37;52.95
70968;BME280;58629;48.808;8.820;2022-09-09T12:13:23;96822.59;;;21.54;53.03
70968;BME280;58629;48.808;8.820;2022-09-09T12:15:54;96826.56;;;21.76;51.49
70968;BME280;58629;48.808;8.820;2022-09-09T12:21:19;96820.25;;;22.01;51.36
70968;BME280;58629;48.808;8.820;2022-09-09T12:23:55;96805.31;;;22.38;52.38
70968;BME280;58629;48.808;8.820;2022-09-09T12:29:06;96812.16;;;22.73;49.95
70968;BME280;58629;48.808;8.820;2022-09-09T12:31:42;96803.34;;;22.56;50.16
70968;BME280;58629;48.808;8.820;2022-09-09T12:34:12;96799.19;;;22.43;48.14
70968;BME280;58629;48.808;8.820;2022-09-09T12:36:40;96807.75;;;22.75;49.61
70968;BME280;58629;48.808;8.820;2022-09-09T12:39:30;96801.03;;;23.09;47.28
70968;BME280;58629;48.808;8.820;2022-09-09T12:41:57;96793.16;;;23.11;45.94
70968;BME280;58629;48.808;8.820;2022-09-09T12:44:24;96796.94;;;22.53;45.86
70968;BME280;58629;48.808;8.820;2022-09-09T12:46:50;96810.22;;;21.90;48.77
70968;BME280;58629;48.808;8.820;2022-09-09T12:49:32;96814.63;;;22.15;50.67
70968;BME280;58629;48.808;8.820;2022-09-09T12:52:27;96797.72;;;22.48;47.90
70968;BME280;58629;48.808;8.820;2022-09-09T12:54:55;96798.56;;;23.06;46.44
70968;BME280;58629;48.808;8.820;2022-09-09T12:57:23;96794.72;;;22.79;46.83
70968;BME280;58629;48.808;8.820;2022-09-09T12:59:52;96787.66;;;22.37;44.53
70968;BME280;58629;48.808;8.820;2022-09-09T13:02:29;96792.53;;;22.78;46.64
70968;BME280;58629;48.808;8.820;2022-09-09T13:05:06;96795.69;;;22.87;46.67
70968;BME280;58629;48.808;8.820;2022-09-09T13:07:32;96789.63;;;21.98;47.03
70968;BME280;58629;48.808;8.820;2022-09-09T13:09:57;96782.00;;;22.19;48.16
70968;BME280;58629;48.808;8.820;2022-09-09T13:12:22;96790.34;;;22.21;47.11
70968;BME280;58629;48.808;8.820;2022-09-09T13:14:50;96788.25;;;21.38;48.36
70968;BME280;58629;48.808;8.820;2022-09-09T13:17:24;96787.94;;;21.14;50.58
70968;BME280;58629;48.808;8.820;2022-09-09T13:19:52;96792.94;;;20.90;50.80
70968;BME280;58629;48.808;8.820;2022-09-09T13:22:34;96784.56;;;20.77;48.97
70968;BME280;58629;48.808;8.820;2022-09-09T13:25:04;96785.94;;;20.61;49.96
70968;BME280;58629;48.808;8.820;2022-09-09T13:27:32;96780.38;;;21.29;50.01
70968;BME280;58629;48.808;8.820;2022-09-09T13:29:59;96774.81;;;21.49;47.76
70968;BME280;58629;48.808;8.820;2022-09-09T13:32:25;96772.22;;;21.83;47.20
70968;BME280;58629;48.808;8.820;2022-09-09T13:35:00;96774.34;;;21.56;49.47
70968;BME280;58629;48.808;8.820;2022-09-09T13:39:59;96767.22;;;21.59;49.46
70968;BME280;58629;48.808;8.820;2022-09-09T13:42:27;96766.34;;;21.84;48.92
70968;BME280;58629;48.808;8.820;2022-09-09T13:44:55;96755.78;;;22.25;47.46
70968;BME280;58629;48.808;8.820;2022-09-09T13:47:27;96770.41;;;22.85;46.94
70968;BME280;58629;48.808;8.820;2022-09-09T13:49:54;96755.34;;;23.11;46.22
70968;BME280;58629;48.808;8.820;2022-09-09T13:52:19;96758.66;;;22.77;44.94
70968;BME280;58629;48.808;8.820;2022-09-09T13:54:49;96757.25;;;22.26;45.52
70968;BME280;58629;48.808;8.820;2022-09-09T13:57:20;96763.09;;;22.47;47.22
70968;BME280;58629;48.808;8.820;2022-09-09T13:59:46;96758.91;;;22.73;43.75
70968;BME280;58629;48.808;8.820;2022-09-09T14:02:12;96759.25;;;23.10;42.96
70968;BME280;58629;48.808;8.820;2022-09-09T14:04:37;96765.31;;;22.48;43.28
70968;BME280;58629;48.808;8.820;2022-09-09T14:07:03;96767.75;;;21.74;45.59
70968;BME280;58629;48.808;8.820;2022-09-09T14:09:28;96767.97;;;21.59;45.93
70968;BME280;58629;48.808;8.820;2022-09-09T14:11:53;96759.41;;;21.55;46.89
70968;BME280;58629;48.808;8.820;2022-09-09T14:14:20;96774.34;;;21.56;46.73
70968;BME280;58629;48.808;8.820;2022-09-09T14:16:45;96761.56;;;21.40;46.43
70968;BME280;58629;48.808;8.820;2022-09-09T14:19:11;96765.47;;;21.34;46.33
70968;BME280;58629;48.808;8.820;2022-09-09T14:21:36;96760.22;;;21.03;47.22
70968;BME280;58629;48.808;8.820;2022-09-09T14:24:01;96765.06;;;20.93;47.45
70968;BME280;58629;48.808;8.820;2022-09-09T14:26:27;96770.94;;;20.97;48.64
70968;BME280;58629;48.808;8.820;2022-09-09T14:28:54;96774.03;;;20.79;48.15
70968;BME280;58629;48.808;8.820;2022-09-09T14:31:19;96786.34;;;20.49;48.83
70968;BME280;58629;48.808;8.820;2022-09-09T14:33:44;96783.63;;;20.43;45.71
70968;BME280;58629;48.808;8.820;2022-09-09T14:36:10;96783.59;;;20.38;46.84
70968;BME280;58629;48.808;8.820;2022-09-09T14:38:37;96775.84;;;20.51;45.00
70968;BME280;58629;48.808;8.820;2022-09-09T14:41:09;96765.94;;;21.27;45.48
70968;BME280;58629;48.808;8.820;2022-09-09T14:43:35;96774.59;;;21.75;44.19
70968;BME280;58629;48.808;8.820;2022-09-09T14:46:26;96770.25;;;22.22;43.51
70968;BME280;58629;48.808;8.820;2022-09-09T14:48:52;96773.41;;;22.54;44.88
70968;BME280;58629;48.808;8.820;2022-09-09T14:51:20;96767.97;;;21.43;44.55
70968;BME280;58629;48.808;8.820;2022-09-09T14:53:47;96770.41;;;21.57;45.79
70968;BME280;58629;48.808;8.820;2022-09-09T14:56:20;96772.41;;;21.74;45.30